Terminal Aerodrome Forecast
Issued by NWS Wilmington, OH

Current Version | Previous Version | Text Only | Print | Product List | Glossary Off
Versions: 1 2 3 4 5 6 7 8 9 10 11 12 13 14 15 16 17 18 19

868
FTUS41 KILN 220443 AAA
TAFILN
TAF AMD
KILN 220443Z 2205/2224 17006KT P6SM VCSH BKN080 OVC120
      TEMPO 2205/2206 6SM -RA BR
     FM220900 11004KT P6SM SCT080 OVC140
     FM221500 07008KT P6SM OVC060
     FM221900 06008KT 6SM -SHRA BR OVC050
     FM222100 06009KT 3SM -SHRA BR OVC015=

USA.gov is the U.S. government's official web portal to all federal, state and local government web resources and services.